Time;durP1;ratioP1;P1;durP2;ratioP2;P2;SDS_P1;SDS_P2;PMS_P1;PMS_P2;Temp;Humidity;BMP_temperature;BMP_pressure;BME280_temperature;BME280_humidity;BME280_pressure;Samples;Min_cycle;Max_cycle;Signal;HPM_P1;HPM_P2
2024/01/02 00:01:00;;;;;;;17.20;15.30;;;;;;;13.08;50.98;100956.35;107080;1258;25379;-51
2024/01/02 00:03:27;;;;;;;18.30;15.40;;;;;;;13.41;50.32;100950.48;107141;1256;25401;-51
2024/01/02 00:05:54;;;;;;;19.00;15.60;;;;;;;13.70;49.53;100944.52;106913;1266;23209;-51
2024/01/02 00:08:21;;;;;;;17.70;15.50;;;;;;;13.25;50.56;100948.21;107056;1263;25396;-51
2024/01/02 00:10:48;;;;;;;17.40;15.50;;;;;;;13.20;50.75;100948.16;106873;1265;25475;-51
2024/01/02 00:13:15;;;;;;;18.80;15.60;;;;;;;13.19;50.69;100959.38;107071;1257;25325;-52
2024/01/02 00:15:42;;;;;;;20.30;16.80;;;;;;;13.17;50.76;100970.04;107154;1267;25399;-51
2024/01/02 00:18:09;;;;;;;19.20;16.30;;;;;;;13.12;50.71;100983.06;106832;1269;25370;-51
2024/01/02 00:20:36;;;;;;;18.90;15.80;;;;;;;13.16;50.56;100985.40;107101;1257;25353;-51
2024/01/02 00:23:04;;;;;;;20.60;17.00;;;;;;;13.14;50.54;100987.20;106718;1273;25468;-51
2024/01/02 00:25:31;;;;;;;18.40;15.60;;;;;;;13.13;50.55;100990.55;106789;1261;25324;-51
2024/01/02 00:27:59;;;;;;;19.20;15.80;;;;;;;13.11;50.52;100992.17;107163;1264;25484;-51
2024/01/02 00:30:26;;;;;;;18.80;15.20;;;;;;;13.11;50.60;101004.54;106966;1267;25366;-55
2024/01/02 00:32:52;;;;;;;19.00;15.70;;;;;;;13.09;50.45;101009.11;106947;1264;25283;-52
2024/01/02 00:35:20;;;;;;;18.50;16.30;;;;;;;13.05;50.52;101007.64;107017;1258;25461;-53
2024/01/02 00:37:47;;;;;;;18.20;15.70;;;;;;;13.04;50.56;101006.09;107135;1257;26107;-53
2024/01/02 00:40:14;;;;;;;18.10;15.60;;;;;;;13.03;50.61;101016.54;107123;1254;25392;-53
2024/01/02 00:42:41;;;;;;;20.20;17.20;;;;;;;12.98;50.48;101023.46;107068;1257;25328;-53
2024/01/02 00:45:08;;;;;;;18.50;15.60;;;;;;;12.87;50.58;101021.70;107116;1258;25392;-52
2024/01/02 00:47:36;;;;;;;20.60;16.80;;;;;;;12.73;50.87;101027.98;107095;1254;24250;-52
2024/01/02 00:50:04;;;;;;;18.80;15.60;;;;;;;12.64;51.23;101032.41;107134;1258;25477;-53
2024/01/02 00:52:31;;;;;;;21.50;17.80;;;;;;;12.60;51.45;101028.67;107057;1257;23140;-53
2024/01/02 00:54:59;;;;;;;19.60;16.70;;;;;;;12.60;51.59;101023.95;106976;1257;23875;-54
2024/01/02 00:57:28;;;;;;;19.10;17.00;;;;;;;12.62;51.55;101016.79;107088;1256;25339;-53
2024/01/02 00:59:55;;;;;;;17.60;15.40;;;;;;;12.64;51.47;101013.25;107176;1257;23860;-52
2024/01/02 01:02:22;;;;;;;20.30;17.70;;;;;;;12.66;51.45;101010.58;107222;1257;25372;-52
2024/01/02 01:04:49;;;;;;;21.20;17.10;;;;;;;12.68;51.49;101012.09;106971;1260;25539;-53
2024/01/02 01:07:17;;;;;;;19.20;17.10;;;;;;;12.71;51.40;101013.07;106697;1263;25376;-53
2024/01/02 01:09:44;;;;;;;18.70;16.30;;;;;;;12.74;51.33;101017.88;107095;1256;25414;-53
2024/01/02 01:12:11;;;;;;;22.10;17.30;;;;;;;12.74;51.21;101016.98;107132;1257;25382;-52
2024/01/02 01:14:38;;;;;;;26.80;17.60;;;;;;;12.76;51.09;101016.59;106332;1257;1005141;-52
2024/01/02 01:17:06;;;;;;;22.50;18.30;;;;;;;12.77;51.23;101012.21;107104;1257;25373;-53
2024/01/02 01:19:33;;;;;;;20.00;16.70;;;;;;;12.78;51.01;101017.39;106252;1257;1003459;-53
2024/01/02 01:22:00;;;;;;;20.60;18.30;;;;;;;12.78;50.96;101017.57;106880;1258;25347;-53
2024/01/02 01:24:27;;;;;;;22.10;18.10;;;;;;;12.78;50.87;101020.88;106943;1264;25356;-54
2024/01/02 01:26:54;;;;;;;21.70;17.50;;;;;;;12.75;50.70;101026.54;107088;1254;22534;-52
2024/01/02 01:29:22;;;;;;;21.10;17.80;;;;;;;12.70;50.88;101030.49;106410;1264;1003034;-53
2024/01/02 01:31:49;;;;;;;20.60;17.40;;;;;;;12.69;50.97;101031.77;107157;1260;26621;-52
2024/01/02 01:34:18;;;;;;;21.20;17.60;;;;;;;12.68;51.00;101027.25;107078;1258;25510;-52
2024/01/02 01:36:46;;;;;;;20.20;17.50;;;;;;;12.81;50.70;101028.80;107105;1258;25449;-52
2024/01/02 01:39:13;;;;;;;23.40;18.50;;;;;;;12.68;50.86;101030.20;107103;1257;25475;-52
2024/01/02 01:41:40;;;;;;;21.30;17.00;;;;;;;12.68;50.89;101031.95;107178;1256;25417;-54
2024/01/02 01:44:07;;;;;;;19.70;17.30;;;;;;;12.67;50.92;101035.80;107132;1258;25284;-52
2024/01/02 01:46:39;;;;;;;20.80;17.40;;;;;;;12.67;50.98;101036.86;106456;1251;1003140;-52
2024/01/02 01:49:08;;;;;;;20.10;17.10;;;;;;;12.67;50.91;101034.60;106914;1260;25395;-52
2024/01/02 01:51:35;;;;;;;25.10;18.10;;;;;;;12.67;50.93;101037.73;107185;1256;22530;-52
2024/01/02 01:54:03;;;;;;;22.50;18.40;;;;;;;12.67;50.94;101047.11;106371;1266;1002287;-52
2024/01/02 01:56:31;;;;;;;22.90;17.90;;;;;;;12.66;50.90;101050.27;106995;1254;24380;-53
2024/01/02 01:58:58;;;;;;;21.60;18.20;;;;;;;12.66;50.90;101057.23;107122;1256;25328;-52
2024/01/02 02:01:26;;;;;;;23.40;17.70;;;;;;;12.65;50.92;101062.47;107121;1266;25405;-52
2024/01/02 02:03:55;;;;;;;22.40;17.60;;;;;;;12.64;50.91;101061.29;106918;1261;25414;-52
2024/01/02 02:06:22;;;;;;;21.80;18.10;;;;;;;12.64;50.92;101061.30;107169;1255;22571;-52
2024/01/02 02:08:50;;;;;;;19.70;16.60;;;;;;;12.62;50.90;101060.63;106422;1251;1003036;-52
2024/01/02 02:11:17;;;;;;;22.80;18.70;;;;;;;12.62;50.86;101057.16;106857;1257;24219;-52
2024/01/02 02:13:44;;;;;;;22.90;18.20;;;;;;;12.61;50.84;101057.00;107102;1254;25346;-52
2024/01/02 02:16:12;;;;;;;22.30;17.80;;;;;;;12.60;50.87;101061.23;107142;1256;22562;-51
2024/01/02 02:18:39;;;;;;;22.70;18.30;;;;;;;12.60;50.86;101065.56;107029;1253;25356;-51
2024/01/02 02:21:07;;;;;;;20.50;18.10;;;;;;;12.59;50.82;101066.63;106861;1261;25334;-52
2024/01/02 02:23:33;;;;;;;21.60;18.50;;;;;;;12.58;50.85;101063.34;106996;1256;22749;-51
2024/01/02 02:26:00;;;;;;;21.70;18.30;;;;;;;12.57;50.82;101059.02;107204;1256;25372;-51
2024/01/02 02:28:29;;;;;;;19.80;16.90;;;;;;;12.56;50.78;101050.70;107140;1254;25347;-52
2024/01/02 02:30:55;;;;;;;20.40;16.80;;;;;;;12.56;50.76;101051.92;107107;1257;25359;-52
2024/01/02 02:33:22;;;;;;;19.80;17.50;;;;;;;12.55;50.79;101053.86;107093;1271;25418;-52
2024/01/02 02:35:50;;;;;;;22.00;18.10;;;;;;;12.55;50.70;101055.79;106974;1260;23186;-52
2024/01/02 02:38:17;;;;;;;22.90;17.90;;;;;;;12.53;50.61;101054.77;107033;1258;25485;-51
2024/01/02 02:40:44;;;;;;;23.40;18.50;;;;;;;12.52;50.74;101053.77;106810;1254;25372;-51
2024/01/02 02:43:11;;;;;;;21.30;18.10;;;;;;;12.51;50.64;101053.79;107101;1255;25363;-51
2024/01/02 02:45:38;;;;;;;22.30;17.70;;;;;;;12.50;50.59;101050.86;106796;1257;374062;-51
2024/01/02 02:48:06;;;;;;;23.70;18.90;;;;;;;12.49;50.59;101050.54;107123;1256;25347;-51
2024/01/02 02:50:33;;;;;;;22.90;18.60;;;;;;;12.48;50.70;101050.23;106650;1259;22520;-52
2024/01/02 02:53:01;;;;;;;19.90;17.70;;;;;;;12.47;50.70;101054.59;106648;1273;25391;-51
2024/01/02 02:55:28;;;;;;;20.80;18.20;;;;;;;12.46;50.67;101060.70;106865;1257;22535;-52
2024/01/02 02:57:56;;;;;;;22.40;18.10;;;;;;;12.46;50.68;101066.97;106398;1257;1003323;-52
2024/01/02 03:00:23;;;;;;;20.40;17.80;;;;;;;12.45;50.67;101059.50;107030;1257;25414;-51
2024/01/02 03:02:50;;;;;;;24.00;18.90;;;;;;;12.45;50.66;101057.43;107093;1257;25449;-52
2024/01/02 03:05:17;;;;;;;22.00;17.90;;;;;;;12.45;50.59;101064.20;107141;1253;24233;-51
2024/01/02 03:07:44;;;;;;;23.10;18.70;;;;;;;12.44;50.61;101066.51;107130;1257;25443;-51
2024/01/02 03:10:14;;;;;;;19.00;16.80;;;;;;;12.44;50.54;101060.60;107108;1254;25356;-51
2024/01/02 03:12:41;;;;;;;20.70;18.00;;;;;;;12.42;50.63;101056.98;106906;1261;25338;-52
2024/01/02 03:15:10;;;;;;;22.50;18.10;;;;;;;12.42;50.63;101056.98;107067;1257;25343;-51
2024/01/02 03:17:37;;;;;;;20.70;17.30;;;;;;;12.42;50.69;101058.20;107135;1251;25446;-51
2024/01/02 03:20:06;;;;;;;21.40;17.00;;;;;;;12.42;50.68;101061.14;106827;1272;25328;-52
2024/01/02 03:22:33;;;;;;;22.50;18.20;;;;;;;12.42;50.57;101061.52;107087;1262;25405;-52
2024/01/02 03:25:00;;;;;;;21.60;17.70;;;;;;;12.42;50.79;101066.38;107120;1256;25356;-51
2024/01/02 03:27:27;;;;;;;21.90;18.50;;;;;;;12.42;50.81;101072.98;107125;1256;25347;-52
2024/01/02 03:29:54;;;;;;;21.70;17.40;;;;;;;12.42;50.69;101071.24;107065;1257;25488;-51
2024/01/02 03:32:21;;;;;;;21.00;17.30;;;;;;;12.42;50.62;101077.68;107212;1257;25362;-51
2024/01/02 03:34:50;;;;;;;21.70;18.30;;;;;;;12.43;50.67;101076.98;107051;1257;25385;-51
2024/01/02 03:37:18;;;;;;;19.90;17.80;;;;;;;12.43;50.74;101082.35;106846;1270;25612;-51
2024/01/02 03:39:45;;;;;;;22.00;18.40;;;;;;;12.43;50.70;101082.35;106866;1267;25356;-51
2024/01/02 03:42:12;;;;;;;20.40;17.40;;;;;;;12.43;50.69;101085.48;106423;1257;1003734;-51
2024/01/02 03:44:39;;;;;;;21.90;18.00;;;;;;;12.44;50.70;101090.17;107110;1262;25465;-52
2024/01/02 03:47:06;;;;;;;20.80;17.50;;;;;;;12.44;50.62;101090.70;106338;1256;1003196;-52
2024/01/02 03:49:33;;;;;;;21.70;17.60;;;;;;;12.44;50.65;101091.20;106887;1254;22546;-51
2024/01/02 03:52:00;;;;;;;20.60;17.00;;;;;;;12.45;50.64;101095.88;106935;1264;25404;-52
2024/01/02 03:54:27;;;;;;;23.60;18.60;;;;;;;12.46;50.67;101100.73;107149;1256;25347;-52
2024/01/02 03:56:54;;;;;;;20.10;17.00;;;;;;;12.47;50.66;101097.39;107196;1253;22589;-51
2024/01/02 03:59:22;;;;;;;20.20;17.20;;;;;;;12.47;50.61;101099.98;106382;1256;1002857;-52
2024/01/02 04:01:49;;;;;;;19.60;16.30;;;;;;;12.48;50.64;101102.06;107110;1261;25478;-52
2024/01/02 04:04:15;;;;;;;21.50;18.50;;;;;;;12.49;50.57;101099.59;107159;1257;25350;-51
2024/01/02 04:06:43;;;;;;;20.20;17.60;;;;;;;12.49;50.72;101100.64;106805;1270;25369;-52
2024/01/02 04:09:10;;;;;;;22.90;18.70;;;;;;;12.48;50.70;101103.81;107149;1256;25510;-51
2024/01/02 04:11:37;;;;;;;21.40;18.20;;;;;;;12.49;50.70;101105.86;107176;1257;25337;-52
2024/01/02 04:14:04;;;;;;;24.10;19.10;;;;;;;12.52;50.76;101105.45;107111;1257;25254;-52
2024/01/02 04:16:31;;;;;;;23.80;19.60;;;;;;;12.53;50.84;101106.65;106817;1259;25346;-52
2024/01/02 04:18:58;;;;;;;23.30;19.50;;;;;;;12.53;50.63;101105.93;106781;1259;22523;-51
2024/01/02 04:21:25;;;;;;;20.10;17.90;;;;;;;12.54;50.76;101106.98;107108;1256;25375;-51
2024/01/02 04:23:52;;;;;;;21.00;18.50;;;;;;;12.54;50.64;101109.22;107104;1257;25365;-51
2024/01/02 04:26:20;;;;;;;22.10;17.80;;;;;;;12.55;50.72;101107.45;107140;1257;25532;-51
2024/01/02 04:28:47;;;;;;;21.10;17.60;;;;;;;12.57;50.63;101118.54;107077;1253;25338;-51
2024/01/02 04:31:14;;;;;;;22.30;17.80;;;;;;;12.58;50.67;101116.98;107144;1254;25401;-51
2024/01/02 04:33:41;;;;;;;21.30;17.20;;;;;;;12.59;50.64;101109.63;107152;1257;25309;-52
2024/01/02 04:36:08;;;;;;;22.60;16.90;;;;;;;12.59;50.57;101107.36;106244;1253;1003791;-51
2024/01/02 04:38:35;;;;;;;20.80;16.90;;;;;;;12.60;50.59;101107.70;107086;1254;24218;-51
2024/01/02 04:41:03;;;;;;;22.60;17.00;;;;;;;12.61;50.68;101117.05;107109;1256;25327;-52
2024/01/02 04:43:30;;;;;;;20.10;16.20;;;;;;;12.63;50.57;101121.73;107114;1263;25386;-51
2024/01/02 04:45:57;;;;;;;18.70;16.20;;;;;;;12.60;50.77;101121.41;107070;1256;25366;-52
2024/01/02 04:48:24;;;;;;;21.00;16.50;;;;;;;12.63;50.69;101120.67;107134;1251;25474;-51
2024/01/02 04:50:51;;;;;;;19.80;16.40;;;;;;;12.64;50.72;101114.36;106320;1256;1003765;-52
2024/01/02 04:53:18;;;;;;;19.90;15.50;;;;;;;12.65;50.66;101122.17;107050;1254;25879;-51
2024/01/02 04:55:45;;;;;;;17.90;16.00;;;;;;;12.67;50.56;101129.98;106830;1257;25484;-52
2024/01/02 04:58:12;;;;;;;20.40;17.00;;;;;;;12.67;50.53;101121.63;106855;1257;25363;-52
2024/01/02 05:00:39;;;;;;;16.90;15.10;;;;;;;12.69;50.44;101123.49;107011;1254;25507;-52
2024/01/02 05:03:06;;;;;;;19.40;16.10;;;;;;;12.70;50.45;101138.09;107016;1257;25366;-53
2024/01/02 05:05:33;;;;;;;21.00;15.90;;;;;;;12.71;50.40;101143.80;106342;1253;1004194;-52
2024/01/02 05:08:01;;;;;;;19.80;15.60;;;;;;;12.72;50.39;101144.80;107252;1253;23362;-51
2024/01/02 05:10:28;;;;;;;19.20;15.90;;;;;;;12.72;50.33;101146.04;107152;1254;25356;-52
2024/01/02 05:12:55;;;;;;;18.70;15.90;;;;;;;12.72;50.41;101149.88;107057;1252;25330;-51
2024/01/02 05:15:22;;;;;;;19.50;15.80;;;;;;;12.72;50.32;101146.02;107108;1257;25338;-51
2024/01/02 05:17:50;;;;;;;18.10;15.50;;;;;;;12.73;50.34;101150.02;107053;1254;25396;-51
2024/01/02 05:20:17;;;;;;;18.40;15.50;;;;;;;12.73;50.34;101157.14;106355;1266;1003523;-52
2024/01/02 05:22:44;;;;;;;18.30;15.20;;;;;;;12.74;50.35;101161.48;107154;1266;25405;-52
2024/01/02 05:25:11;;;;;;;18.10;15.00;;;;;;;12.75;50.29;101159.02;107136;1257;25334;-52
2024/01/02 05:27:39;;;;;;;16.90;15.00;;;;;;;12.75;50.29;101161.80;106749;1267;25366;-52
2024/01/02 05:30:06;;;;;;;18.30;14.80;;;;;;;12.76;50.33;101157.25;107088;1257;25337;-51
2024/01/02 05:32:35;;;;;;;19.70;16.00;;;;;;;12.77;50.34;101162.27;107176;1255;22549;-52
2024/01/02 05:35:02;;;;;;;16.90;14.80;;;;;;;12.79;50.33;101170.76;107098;1257;25353;-51
2024/01/02 05:37:29;;;;;;;18.90;15.90;;;;;;;12.79;50.25;101173.71;106341;1253;1002678;-52
2024/01/02 05:39:56;;;;;;;18.90;14.80;;;;;;;12.80;50.23;101178.91;107040;1256;25408;-51
2024/01/02 05:42:23;;;;;;;16.90;14.20;;;;;;;12.79;50.34;101177.89;106791;1256;25475;-52
2024/01/02 05:44:51;;;;;;;18.50;14.60;;;;;;;12.79;50.27;101186.94;106963;1260;25363;-52
2024/01/02 05:47:18;;;;;;;16.90;14.60;;;;;;;12.80;50.23;101201.71;106328;1251;1002862;-52
2024/01/02 05:49:45;;;;;;;18.20;14.50;;;;;;;12.81;50.30;101199.44;106851;1257;24185;-52
2024/01/02 05:52:12;;;;;;;18.60;14.90;;;;;;;12.81;50.28;101197.16;106729;1260;25334;-51
2024/01/02 05:54:39;;;;;;;19.40;15.90;;;;;;;12.82;50.23;101207.23;106969;1255;25309;-52
2024/01/02 05:57:06;;;;;;;17.40;14.50;;;;;;;12.82;50.18;101208.27;106827;1254;25325;-52
2024/01/02 05:59:34;;;;;;;18.70;14.60;;;;;;;12.84;50.24;101211.55;106789;1257;25356;-52
2024/01/02 06:02:01;;;;;;;16.70;13.60;;;;;;;12.85;50.08;101217.27;106814;1254;22470;-52
2024/01/02 06:04:28;;;;;;;17.40;14.90;;;;;;;12.85;49.99;101219.52;106123;1256;1003241;-52
2024/01/02 06:06:55;;;;;;;16.70;13.00;;;;;;;12.85;49.99;101223.35;106971;1253;24241;-52
2024/01/02 06:09:23;;;;;;;16.30;13.70;;;;;;;12.85;49.90;101220.73;106978;1266;25337;-51
2024/01/02 06:11:50;;;;;;;17.60;14.60;;;;;;;12.85;49.90;101221.25;107121;1251;25382;-52
2024/01/02 06:14:18;;;;;;;17.00;14.80;;;;;;;12.86;49.92;101222.98;107132;1264;25328;-52
2024/01/02 06:16:45;;;;;;;16.70;14.00;;;;;;;12.88;49.87;101226.07;107118;1256;24418;-52
2024/01/02 06:19:12;;;;;;;15.70;13.40;;;;;;;12.89;49.87;101222.75;107113;1256;25433;-52
2024/01/02 06:21:40;;;;;;;16.00;14.30;;;;;;;12.90;49.91;101228.12;107075;1257;24415;-51
2024/01/02 06:24:07;;;;;;;16.70;13.40;;;;;;;12.91;49.70;101232.63;106857;1260;25353;-51
2024/01/02 06:26:34;;;;;;;15.70;13.10;;;;;;;12.92;49.69;101229.30;106748;1260;25360;-52
2024/01/02 06:29:02;;;;;;;17.00;13.80;;;;;;;12.93;49.69;101228.23;107049;1253;24378;-52
2024/01/02 06:31:29;;;;;;;16.70;14.10;;;;;;;12.94;49.56;101228.70;107110;1260;24493;-52
2024/01/02 06:33:57;;;;;;;16.60;13.20;;;;;;;12.95;49.57;101232.70;107115;1257;25325;-52
2024/01/02 06:36:24;;;;;;;16.70;13.50;;;;;;;12.95;49.46;101239.15;107166;1255;22533;-52
2024/01/02 06:38:50;;;;;;;15.70;13.60;;;;;;;12.95;49.47;101239.84;107082;1250;25278;-51
2024/01/02 06:41:18;;;;;;;16.10;14.40;;;;;;;12.96;49.43;101231.45;106420;1267;25472;-51
2024/01/02 06:43:45;;;;;;;16.40;14.40;;;;;;;12.97;49.43;101229.34;106805;1257;25299;-52
2024/01/02 06:46:12;;;;;;;19.00;14.10;;;;;;;12.98;49.38;101232.11;106907;1257;25334;-52
2024/01/02 06:48:41;;;;;;;17.10;13.70;;;;;;;12.98;49.36;101232.79;106736;1257;25337;-52
2024/01/02 06:51:08;;;;;;;18.30;14.50;;;;;;;13.00;49.39;101234.84;107083;1250;25353;-52
2024/01/02 06:53:35;;;;;;;15.40;13.00;;;;;;;13.02;49.51;101237.23;106288;1256;1002930;-52
2024/01/02 06:56:03;;;;;;;15.40;12.90;;;;;;;13.03;49.38;101236.17;106887;1266;25527;-52
2024/01/02 06:58:30;;;;;;;13.40;12.00;;;;;;;13.00;49.51;101235.71;107151;1256;22528;-51
2024/01/02 07:00:57;;;;;;;14.00;12.50;;;;;;;13.06;49.42;101235.24;107105;1257;25500;-52
2024/01/02 07:03:24;;;;;;;17.10;14.00;;;;;;;13.10;49.45;101237.42;107159;1266;25353;-51
2024/01/02 07:05:51;;;;;;;14.50;12.90;;;;;;;13.13;49.46;101241.55;107142;1251;25364;-53
2024/01/02 07:08:19;;;;;;;15.50;13.00;;;;;;;13.16;49.33;101247.23;107086;1260;22983;-52
2024/01/02 07:10:46;;;;;;;15.60;13.60;;;;;;;13.17;49.32;101246.32;106846;1267;25411;-52
2024/01/02 07:13:13;;;;;;;16.40;13.40;;;;;;;13.19;49.35;101248.70;107065;1256;25412;-51
2024/01/02 07:15:40;;;;;;;15.50;13.40;;;;;;;13.22;49.33;101247.08;107222;1254;25347;-52
2024/01/02 07:18:07;;;;;;;14.80;12.80;;;;;;;13.23;49.25;101246.50;106887;1257;25796;-52
2024/01/02 07:20:35;;;;;;;16.00;12.80;;;;;;;13.25;49.30;101243.85;107100;1251;25337;-52
2024/01/02 07:23:03;;;;;;;15.10;12.20;;;;;;;13.28;49.22;101242.56;106900;1258;25338;-52
2024/01/02 07:25:30;;;;;;;14.70;13.20;;;;;;;13.29;49.05;101242.17;106879;1258;25356;-52
2024/01/02 07:27:57;;;;;;;15.40;12.30;;;;;;;13.32;49.00;101242.98;107142;1250;22737;-51
2024/01/02 07:30:24;;;;;;;15.10;12.40;;;;;;;13.34;49.07;101248.84;106985;1257;25335;-52
2024/01/02 07:32:51;;;;;;;14.90;12.10;;;;;;;13.37;49.08;101250.86;107092;1257;25562;-52
2024/01/02 07:35:18;;;;;;;14.80;12.10;;;;;;;13.40;49.07;101249.39;107155;1256;25334;-52
2024/01/02 07:37:46;;;;;;;13.40;11.70;;;;;;;13.43;48.91;101251.74;107150;1257;25405;-51
2024/01/02 07:40:13;;;;;;;16.80;12.50;;;;;;;13.62;48.55;101250.54;107130;1257;25379;-52
2024/01/02 07:42:41;;;;;;;13.60;12.10;;;;;;;13.54;48.81;101246.05;107153;1256;25414;-52
2024/01/02 07:45:09;;;;;;;13.90;11.90;;;;;;;13.55;48.98;101246.02;107054;1257;25372;-52
2024/01/02 07:47:36;;;;;;;13.80;11.70;;;;;;;13.60;48.81;101242.07;106916;1270;25488;-52
2024/01/02 07:50:04;;;;;;;12.40;11.10;;;;;;;13.64;48.73;101245.79;106900;1258;25484;-52
2024/01/02 07:52:32;;;;;;;14.10;11.80;;;;;;;13.70;48.74;101248.60;106837;1259;22540;-52
2024/01/02 07:54:59;;;;;;;14.30;12.10;;;;;;;13.74;48.62;101247.79;107106;1257;22549;-53
2024/01/02 07:57:26;;;;;;;13.20;11.80;;;;;;;13.78;48.38;101251.69;106797;1260;22639;-52
2024/01/02 07:59:55;;;;;;;12.00;10.80;;;;;;;13.81;48.17;101247.95;107086;1256;25347;-52
2024/01/02 08:02:24;;;;;;;13.00;11.10;;;;;;;13.83;48.03;101248.40;107215;1255;25373;-52
2024/01/02 08:04:51;;;;;;;13.00;10.70;;;;;;;13.85;47.75;101251.15;107098;1254;25372;-52
2024/01/02 08:07:18;;;;;;;12.30;10.50;;;;;;;13.87;47.72;101248.29;107113;1256;22523;-52
2024/01/02 08:09:45;;;;;;;11.50;10.30;;;;;;;13.91;47.58;101250.63;107143;1256;25487;-52
2024/01/02 08:12:12;;;;;;;13.80;10.10;;;;;;;13.94;47.51;101254.02;106846;1272;24197;-52
2024/01/02 08:14:39;;;;;;;11.60;10.40;;;;;;;13.98;47.54;101257.08;107099;1253;25404;-52
2024/01/02 08:17:06;;;;;;;13.10;10.30;;;;;;;14.03;47.32;101259.36;106796;1260;24185;-52
2024/01/02 08:19:33;;;;;;;10.90;9.40;;;;;;;14.09;47.22;101261.99;107167;1256;25353;-52
2024/01/02 08:22:00;;;;;;;10.90;9.40;;;;;;;14.13;47.09;101261.52;107065;1256;25347;-52
2024/01/02 08:24:28;;;;;;;10.70;8.60;;;;;;;14.16;47.07;101262.83;107020;1256;25353;-53
2024/01/02 08:26:55;;;;;;;11.80;10.00;;;;;;;14.19;47.01;101268.50;107009;1253;24196;-52
2024/01/02 08:29:22;;;;;;;13.70;9.60;;;;;;;14.21;46.87;101266.68;106848;1267;25423;-52
2024/01/02 08:31:49;;;;;;;11.80;9.00;;;;;;;14.23;46.98;101260.20;106411;1263;1003293;-52
2024/01/02 08:34:16;;;;;;;10.20;8.50;;;;;;;14.25;47.03;101261.52;107124;1260;25331;-52
2024/01/02 08:36:43;;;;;;;10.20;7.90;;;;;;;14.27;47.01;101260.77;107041;1257;25318;-52
2024/01/02 08:39:10;;;;;;;8.90;7.90;;;;;;;14.30;46.82;101263.14;107027;1257;24234;-52
2024/01/02 08:41:37;;;;;;;9.40;8.20;;;;;;;14.33;46.61;101259.05;107025;1256;24240;-52
2024/01/02 08:44:04;;;;;;;8.70;7.80;;;;;;;14.35;46.53;101258.28;107137;1260;25557;-52
2024/01/02 08:46:31;;;;;;;7.90;7.10;;;;;;;14.38;46.35;101253.15;106124;1255;1003598;-52
2024/01/02 08:48:58;;;;;;;8.90;7.70;;;;;;;14.40;46.18;101250.66;106792;1256;25523;-52
2024/01/02 08:51:26;;;;;;;8.10;7.30;;;;;;;14.42;46.07;101244.84;105990;1259;1003074;-52
2024/01/02 08:53:53;;;;;;;8.60;7.10;;;;;;;14.43;46.02;101238.34;106790;1269;25363;-52
2024/01/02 08:56:21;;;;;;;8.80;7.00;;;;;;;14.43;45.83;101236.77;106785;1257;25319;-52
2024/01/02 08:58:48;;;;;;;7.60;6.70;;;;;;;14.42;45.82;101235.05;106764;1259;25392;-52
2024/01/02 09:01:18;;;;;;;8.40;6.30;;;;;;;14.42;45.86;101231.92;106035;1268;1003480;-52
2024/01/02 09:03:45;;;;;;;7.80;6.50;;;;;;;14.41;45.97;101231.23;106851;1256;25369;-52
2024/01/02 09:06:17;;;;;;;7.90;6.90;;;;;;;14.41;45.88;101232.98;106709;1257;25401;-52
2024/01/02 09:08:44;;;;;;;7.40;6.60;;;;;;;14.41;45.92;101234.36;106605;1259;22728;-52
2024/01/02 09:11:12;;;;;;;7.70;6.70;;;;;;;14.43;46.00;101238.52;106769;1259;25453;-53
2024/01/02 09:13:39;;;;;;;7.10;6.40;;;;;;;14.44;45.98;101236.37;106620;1261;25412;-52
2024/01/02 09:16:07;;;;;;;8.00;6.60;;;;;;;14.47;46.04;101233.67;106769;1259;24346;-52
2024/01/02 09:18:34;;;;;;;9.00;6.30;;;;;;;14.50;46.03;101232.70;107036;1258;25363;-52
2024/01/02 09:21:02;;;;;;;7.70;6.80;;;;;;;14.52;46.03;101242.58;106857;1260;25401;-52
2024/01/02 09:23:29;;;;;;;6.80;6.20;;;;;;;14.54;45.92;101236.23;107141;1257;25337;-52
2024/01/02 09:25:59;;;;;;;5.80;5.20;;;;;;;14.59;45.82;101237.50;106874;1256;25375;-52
2024/01/02 09:28:26;;;;;;;6.40;5.80;;;;;;;14.60;45.68;101235.70;107171;1257;25366;-52
2024/01/02 09:30:53;;;;;;;5.60;4.80;;;;;;;14.62;45.67;101235.46;107014;1258;25497;-52
2024/01/02 09:33:20;;;;;;;6.90;5.30;;;;;;;14.66;45.68;101236.05;106253;1256;1002976;-52
2024/01/02 09:35:48;;;;;;;6.20;5.00;;;;;;;14.69;45.59;101234.02;106892;1256;25477;-52
2024/01/02 09:38:15;;;;;;;5.90;4.90;;;;;;;14.74;45.52;101233.01;107166;1254;24228;-52
2024/01/02 09:41:00;;;;;;;5.10;4.60;;;;;;;14.78;45.32;101234.30;106751;1272;25507;-52
2024/01/02 09:43:39;;;;;;;5.70;4.70;;;;;;;14.82;45.18;101229.44;107072;1269;25328;-51
2024/01/02 09:46:21;;;;;;;4.80;4.20;;;;;;;14.86;45.17;101229.31;107139;1257;25366;-51
2024/01/02 09:49:17;;;;;;;6.20;4.60;;;;;;;14.90;45.19;101231.13;107158;1256;25337;-51
2024/01/02 09:52:03;;;;;;;4.30;3.90;;;;;;;14.91;45.03;101231.42;107038;1257;25455;-52
2024/01/02 09:54:50;;;;;;;4.00;3.70;;;;;;;14.93;44.76;101233.82;107081;1253;25382;-52
2024/01/02 09:57:30;;;;;;;4.20;3.20;;;;;;;14.94;44.46;101232.20;107121;1256;25366;-51
2024/01/02 10:00:14;;;;;;;3.20;2.90;;;;;;;14.96;44.20;101229.19;107099;1256;22534;-51
2024/01/02 10:02:54;;;;;;;3.10;2.80;;;;;;;14.97;44.09;101218.31;107093;1256;24266;-52
2024/01/02 10:05:52;;;;;;;4.20;2.70;;;;;;;15.00;43.79;101215.58;107078;1256;25351;-53
2024/01/02 10:08:45;;;;;;;2.70;2.50;;;;;;;15.04;43.48;101213.86;106737;1257;25459;-51
2024/01/02 10:11:15;;;;;;;3.10;2.70;;;;;;;15.06;43.32;101207.88;106231;1267;24355;-52
2024/01/02 10:13:54;;;;;;;3.00;2.50;;;;;;;15.07;43.16;101206.61;106153;1267;22611;-51
2024/01/02 10:16:34;;;;;;;2.50;2.10;;;;;;;15.09;43.09;101200.97;106124;1265;22651;-51
2024/01/02 10:19:08;;;;;;;5.00;3.00;;;;;;;15.10;43.07;101200.76;106135;1270;22562;-51
2024/01/02 10:21:43;;;;;;;2.40;2.20;;;;;;;15.10;42.82;101198.29;106094;1262;24391;-52
2024/01/02 10:24:24;;;;;;;2.20;2.00;;;;;;;15.11;42.72;101195.48;106154;1265;25559;-52
2024/01/02 10:27:06;;;;;;;2.50;2.10;;;;;;;15.10;42.53;101186.05;106220;1278;22765;-51
2024/01/02 10:29:42;;;;;;;2.30;2.10;;;;;;;15.14;42.34;101184.55;106128;1263;24221;-51
2024/01/02 10:32:12;;;;;;;5.70;2.10;;;;;;;15.17;42.06;101180.95;106250;1260;26000;-51
2024/01/02 10:35:15;;;;;;;3.90;2.40;;;;;;;15.20;41.98;101172.08;106074;1273;22536;-52
2024/01/02 10:38:28;;;;;;;3.20;2.80;;;;;;;15.23;41.83;101168.33;106276;1276;25428;-51
2024/01/02 10:41:39;;;;;;;4.40;2.80;;;;;;;15.25;41.76;101168.60;106428;1264;25366;-52
2024/01/02 10:44:21;;;;;;;4.30;3.10;;;;;;;15.27;41.85;101161.73;106017;1274;25348;-52
2024/01/02 10:47:02;;;;;;;3.10;2.80;;;;;;;15.27;41.86;101160.66;105930;1277;22629;-51
2024/01/02 10:49:34;;;;;;;3.30;2.60;;;;;;;15.28;41.79;101155.02;105629;1269;1003687;-53
2024/01/02 10:52:25;;;;;;;3.30;2.80;;;;;;;15.28;41.70;101151.38;106391;1276;25363;-51
2024/01/02 10:55:16;;;;;;;3.10;2.60;;;;;;;15.28;41.71;101147.70;105637;1278;1003662;-52
2024/01/02 10:57:52;;;;;;;2.60;2.40;;;;;;;15.28;41.62;101145.25;106450;1271;25351;-53
2024/01/02 11:00:22;;;;;;;4.20;3.10;;;;;;;15.28;41.66;101146.82;106483;1263;23859;-52
2024/01/02 11:02:59;;;;;;;2.90;2.40;;;;;;;15.30;41.64;101141.88;106572;1262;22530;-52
2024/01/02 11:05:49;;;;;;;3.30;3.00;;;;;;;15.30;41.51;101138.71;106319;1283;25492;-52
2024/01/02 11:08:33;;;;;;;5.00;2.90;;;;;;;15.31;41.34;101133.41;106567;1271;22672;-52
2024/01/02 11:11:03;;;;;;;4.40;3.10;;;;;;;15.34;41.36;101130.86;106463;1275;26350;-52
2024/01/02 11:13:31;;;;;;;3.20;2.90;;;;;;;15.36;41.25;101127.85;106347;1278;22539;-52